createdAt,value
2022-07-26T00:09:27.271Z,0.00
2022-07-26T00:24:32.353Z,0.00
2022-07-26T00:39:34.789Z,0.00
2022-07-26T00:54:35.903Z,0.00
2022-07-26T01:09:37.139Z,0.00
2022-07-26T01:24:38.395Z,0.00
2022-07-26T01:39:39.610Z,0.00
2022-07-26T01:54:40.738Z,0.00
2022-07-26T02:09:41.838Z,0.00
2022-07-26T02:24:43.398Z,0.00
2022-07-26T02:39:44.083Z,0.00
2022-07-26T02:54:45.708Z,0.00
2022-07-26T03:09:46.883Z,0.00
2022-07-26T03:24:48.512Z,11.25
2022-07-26T03:39:49.653Z,28.12
2022-07-26T03:54:50.848Z,56.25
2022-07-26T04:09:52.119Z,78.75
2022-07-26T04:24:53.385Z,95.62
2022-07-26T04:39:55.212Z,185.62
2022-07-26T04:54:55.926Z,219.38
2022-07-26T05:09:58.103Z,196.88
2022-07-26T05:24:59.771Z,286.88
2022-07-26T05:40:01.005Z,281.25
2022-07-26T05:55:02.213Z,309.38
2022-07-26T06:10:03.502Z,343.12
2022-07-26T06:25:04.612Z,354.38
2022-07-26T06:40:05.860Z,365.62
2022-07-26T06:55:07.013Z,393.75
2022-07-26T07:10:08.162Z,438.75
2022-07-26T07:25:09.309Z,585.00
2022-07-26T07:40:10.553Z,348.75
2022-07-26T07:55:40.132Z,298.12
2022-07-26T08:10:17.821Z,652.50
2022-07-26T08:25:19.370Z,652.50
2022-07-26T08:40:20.026Z,500.62
2022-07-26T08:55:21.267Z,680.62
2022-07-26T09:10:22.418Z,315.00
2022-07-26T09:25:23.584Z,1231.88
2022-07-26T09:40:24.274Z,652.50
2022-07-26T09:55:25.030Z,1535.62
2022-07-26T10:10:27.248Z,793.12
2022-07-26T10:25:28.461Z,697.50
2022-07-26T10:40:29.549Z,798.75
2022-07-26T10:55:30.732Z,326.25
2022-07-26T11:10:31.950Z,90.00
2022-07-26T11:25:33.110Z,658.12
2022-07-26T11:40:34.288Z,776.25
2022-07-26T11:55:34.895Z,1141.88
2022-07-26T12:10:36.051Z,1057.50
2022-07-26T12:25:37.226Z,129.38
2022-07-26T12:40:38.442Z,264.38
2022-07-26T12:55:39.761Z,348.75
2022-07-26T13:10:40.961Z,568.12
2022-07-26T13:25:43.070Z,714.38
2022-07-26T13:40:44.136Z,568.12
2022-07-26T13:55:45.282Z,421.88
2022-07-26T14:10:46.479Z,1085.62
2022-07-26T14:25:47.593Z,2334.38
2022-07-26T14:40:49.170Z,860.62
2022-07-26T14:55:50.534Z,1068.75
2022-07-26T15:10:51.275Z,1794.38
2022-07-26T15:25:51.866Z,2053.12
2022-07-26T15:40:52.635Z,630.00
2022-07-26T15:57:03.684Z,691.88
2022-07-26T16:12:06.268Z,528.75
2022-07-26T16:27:07.634Z,444.38
2022-07-26T16:42:08.782Z,315.00
2022-07-26T16:57:09.932Z,270.00
2022-07-26T17:12:11.111Z,191.25
2022-07-26T17:27:12.186Z,202.50
2022-07-26T17:42:14.784Z,135.00
2022-07-26T17:57:15.490Z,123.75
2022-07-26T18:12:16.623Z,78.75
2022-07-26T18:27:18.161Z,61.88
2022-07-26T18:42:18.906Z,39.38
2022-07-26T18:57:20.168Z,22.50
2022-07-26T19:12:21.470Z,5.62
2022-07-26T19:27:22.157Z,0.00
2022-07-26T19:42:22.860Z,0.00
2022-07-26T19:57:23.962Z,0.00
2022-07-26T20:12:24.862Z,0.00
2022-07-26T20:27:24.870Z,0.00
2022-07-26T20:42:26.070Z,0.00
2022-07-26T20:57:28.614Z,0.00
2022-07-26T21:12:28.721Z,0.00
2022-07-26T21:27:28.904Z,0.00
2022-07-26T21:42:29.079Z,0.00
2022-07-26T21:57:29.658Z,0.00
2022-07-26T22:12:29.478Z,0.00
2022-07-26T22:27:30.236Z,0.00
2022-07-26T22:42:31.333Z,0.00
2022-07-26T22:57:32.493Z,0.00
2022-07-26T23:12:33.615Z,0.00
2022-07-26T23:27:34.875Z,0.00
2022-07-26T23:42:36.042Z,0.00
2022-07-26T23:57:37.489Z,0.00
